Time;durP1;ratioP1;P1;durP2;ratioP2;P2;SDS_P1;SDS_P2;PMS_P1;PMS_P2;Temp;Humidity;BMP_temperature;BMP_pressure;BME280_temperature;BME280_humidity;BME280_pressure;Samples;Min_cycle;Max_cycle;Signal;HPM_P1;HPM_P2
2023/05/01 00:02:22;;;;;;;13.50;12.30;;;12.90;84.70;;;;;;5074271;28;20200;-86
2023/05/01 00:04:48;;;;;;;13.63;12.27;;;12.80;84.90;;;;;;5058024;28;20188;-88
2023/05/01 00:07:13;;;;;;;13.47;12.40;;;12.80;85.60;;;;;;5076020;28;20222;-88
2023/05/01 00:09:39;;;;;;;13.90;12.60;;;12.60;86.60;;;;;;5080727;28;20249;-89
2023/05/01 00:12:05;;;;;;;13.97;12.57;;;12.60;86.70;;;;;;5078995;28;20240;-89
2023/05/01 00:14:30;;;;;;;14.77;13.47;;;12.60;87.00;;;;;;5078398;28;20324;-88
2023/05/01 00:16:56;;;;;;;14.37;12.83;;;12.50;87.30;;;;;;5058092;28;20180;-88
2023/05/01 00:19:22;;;;;;;13.00;11.80;;;12.50;87.50;;;;;;5075929;28;20215;-88
2023/05/01 00:21:50;;;;;;;13.47;12.40;;;12.60;87.40;;;;;;5073903;28;20695;-89
2023/05/01 00:24:16;;;;;;;14.57;13.33;;;12.60;86.40;;;;;;5074181;28;20201;-90
2023/05/01 00:26:41;;;;;;;14.83;13.50;;;12.60;87.40;;;;;;5077252;28;20296;-89
2023/05/01 00:29:07;;;;;;;14.63;13.27;;;12.60;86.80;;;;;;5088041;28;20253;-87
2023/05/01 00:31:33;;;;;;;14.53;13.23;;;12.70;86.90;;;;;;5076069;28;20210;-89
2023/05/01 00:33:59;;;;;;;15.30;13.97;;;12.70;86.50;;;;;;5077296;28;20179;-88
2023/05/01 00:36:24;;;;;;;15.70;14.30;;;12.80;85.50;;;;;;5077192;28;20202;-89
2023/05/01 00:38:50;;;;;;;15.70;14.23;;;12.90;85.10;;;;;;5078706;28;20238;-88
2023/05/01 00:41:16;;;;;;;15.97;14.60;;;12.90;85.00;;;;;;5079095;28;20205;-88
2023/05/01 00:43:41;;;;;;;15.97;14.50;;;12.90;84.30;;;;;;5079065;28;20182;-88
2023/05/01 00:46:08;;;;;;;16.57;15.07;;;12.70;85.10;;;;;;5077706;28;20190;-88
2023/05/01 00:48:34;;;;;;;15.93;14.63;;;12.70;86.60;;;;;;5060635;28;20186;-87
2023/05/01 00:51:02;;;;;;;16.47;14.87;;;12.60;86.40;;;;;;5078146;28;20220;-88
2023/05/01 00:53:28;;;;;;;20.93;18.87;;;12.50;87.10;;;;;;5078912;28;20208;-89
2023/05/01 00:55:56;;;;;;;21.13;19.00;;;12.30;88.40;;;;;;5078779;28;20187;-88
2023/05/01 00:58:22;;;;;;;23.77;21.47;;;12.40;87.90;;;;;;5079298;28;20243;-89
2023/05/01 01:00:48;;;;;;;23.90;21.53;;;12.30;88.40;;;;;;5059788;28;20304;-89
2023/05/01 01:03:15;;;;;;;23.40;21.30;;;12.40;88.70;;;;;;5078666;28;20713;-89
2023/05/01 01:06:19;;;;;;;25.17;22.57;;;12.40;88.40;;;;;;5079042;28;20169;-89
2023/05/01 01:08:55;;;;;;;23.63;21.33;;;12.50;88.20;;;;;;5046614;28;20707;-88
2023/05/01 01:11:27;;;;;;;26.67;23.97;;;12.40;89.60;;;;;;5078524;28;20511;-89
2023/05/01 01:14:10;;;;;;;25.07;22.57;;;12.20;90.80;;;;;;5078290;28;20203;-88
2023/05/01 01:17:12;;;;;;;24.90;22.37;;;12.00;92.70;;;;;;5080203;28;20183;-89
2023/05/01 01:19:40;;;;;;;23.80;21.50;;;12.10;92.50;;;;;;5061044;28;20242;-89
2023/05/01 01:22:17;;;;;;;22.73;20.47;;;12.20;91.50;;;;;;5077753;28;20204;-87
2023/05/01 01:24:58;;;;;;;21.67;19.57;;;12.40;90.20;;;;;;5079000;28;20701;-87
2023/05/01 01:27:51;;;;;;;20.70;18.77;;;12.40;89.90;;;;;;5087246;28;20190;-88
2023/05/01 01:30:20;;;;;;;17.30;15.70;;;12.50;89.60;;;;;;5102816;28;20180;-89
2023/05/01 01:33:00;;;;;;;15.30;13.90;;;12.50;88.10;;;;;;5097687;28;20241;-89
2023/05/01 01:35:27;;;;;;;15.77;14.23;;;12.40;87.40;;;;;;5098910;28;20264;-88
2023/05/01 01:38:07;;;;;;;14.10;12.90;;;12.30;88.30;;;;;;5097258;28;20517;-89
2023/05/01 01:40:37;;;;;;;16.93;15.43;;;12.30;88.60;;;;;;5059789;28;20281;-89
2023/05/01 01:43:09;;;;;;;14.30;13.17;;;12.20;89.10;;;;;;5077303;28;20616;-90
2023/05/01 01:45:45;;;;;;;12.73;11.60;;;12.30;88.60;;;;;;5078767;28;20623;-89
2023/05/01 01:48:16;;;;;;;12.23;11.23;;;12.30;87.00;;;;;;5079388;28;20184;-88
2023/05/01 01:50:45;;;;;;;14.53;13.33;;;12.50;86.70;;;;;;5060510;28;20535;-89
2023/05/01 01:53:14;;;;;;;13.63;12.43;;;12.40;87.70;;;;;;5078339;28;20202;-89
2023/05/01 01:55:42;;;;;;;10.77;9.87;;;12.40;86.90;;;;;;5078310;28;20177;-88
2023/05/01 01:58:10;;;;;;;11.50;10.60;;;12.50;85.40;;;;;;5078374;28;20187;-88
2023/05/01 02:00:36;;;;;;;11.73;10.73;;;12.60;86.00;;;;;;5078707;28;20183;-89
2023/05/01 02:03:02;;;;;;;11.77;10.60;;;12.60;86.20;;;;;;5079530;28;20193;-89
2023/05/01 02:05:30;;;;;;;11.37;10.30;;;12.60;85.40;;;;;;5079860;28;20209;-87
2023/05/01 02:07:57;;;;;;;10.23;9.23;;;12.40;85.60;;;;;;5079793;28;20175;-89
2023/05/01 02:10:24;;;;;;;9.97;9.17;;;12.40;85.20;;;;;;5078447;28;20176;-88
2023/05/01 02:12:51;;;;;;;9.57;8.83;;;12.40;85.00;;;;;;5079180;28;20202;-88
2023/05/01 02:15:18;;;;;;;9.33;8.63;;;12.40;85.50;;;;;;5077680;28;20230;-88
2023/05/01 02:17:44;;;;;;;9.40;8.60;;;12.30;84.70;;;;;;5056186;28;20192;-87
2023/05/01 02:20:11;;;;;;;9.10;8.40;;;12.30;85.10;;;;;;5055029;28;20658;-88
2023/05/01 02:22:39;;;;;;;10.00;9.10;;;12.30;84.60;;;;;;5054319;28;20196;-88
2023/05/01 02:25:10;;;;;;;9.60;8.90;;;12.30;84.50;;;;;;5054653;28;20192;-87
2023/05/01 02:27:39;;;;;;;9.43;8.63;;;12.20;84.60;;;;;;5054191;28;20185;-89
2023/05/01 02:30:06;;;;;;;9.70;9.00;;;12.20;84.70;;;;;;5055032;28;20689;-89
2023/05/01 02:32:32;;;;;;;9.90;9.10;;;12.20;84.30;;;;;;5064386;28;20203;-89
2023/05/01 02:34:58;;;;;;;8.77;8.07;;;12.20;84.40;;;;;;5077215;28;20221;-89
2023/05/01 02:37:24;;;;;;;9.63;8.73;;;12.20;84.50;;;;;;5076715;28;20553;-88
2023/05/01 02:39:50;;;;;;;9.70;8.80;;;12.30;84.00;;;;;;5076696;28;20223;-88
2023/05/01 02:42:19;;;;;;;8.60;7.90;;;12.20;83.90;;;;;;5076286;28;20260;-88
2023/05/01 02:44:58;;;;;;;8.00;7.40;;;12.20;83.90;;;;;;5074492;28;20196;-88
2023/05/01 02:47:27;;;;;;;8.57;7.87;;;12.20;83.80;;;;;;5076740;28;20162;-88
2023/05/01 02:49:54;;;;;;;9.17;8.47;;;12.20;83.70;;;;;;5060580;28;20207;-87
2023/05/01 02:52:21;;;;;;;8.47;7.87;;;12.20;84.00;;;;;;5077400;28;20210;-87
2023/05/01 02:54:48;;;;;;;9.47;8.63;;;12.20;83.60;;;;;;5077765;28;20194;-89
2023/05/01 02:57:16;;;;;;;8.97;8.17;;;12.20;83.60;;;;;;5076534;28;20648;-88
2023/05/01 02:59:42;;;;;;;9.40;8.60;;;12.20;83.50;;;;;;5077107;28;20211;-87
2023/05/01 03:02:08;;;;;;;8.57;7.77;;;12.10;83.90;;;;;;5076026;28;20207;-88
2023/05/01 03:04:33;;;;;;;8.13;7.43;;;12.10;83.60;;;;;;5076827;28;20184;-88
2023/05/01 03:06:59;;;;;;;9.03;7.97;;;12.10;83.70;;;;;;5075568;28;20214;-89
2023/05/01 03:09:25;;;;;;;8.80;8.10;;;12.10;83.90;;;;;;5074822;28;20242;-88
2023/05/01 03:11:50;;;;;;;8.63;7.93;;;12.10;83.30;;;;;;5075205;28;20208;-89
2023/05/01 03:14:16;;;;;;;8.50;7.87;;;12.00;83.60;;;;;;5073290;28;20240;-89
2023/05/01 03:16:43;;;;;;;8.40;7.70;;;12.00;83.90;;;;;;5056267;28;20280;-88
2023/05/01 03:19:09;;;;;;;8.70;8.10;;;12.10;83.30;;;;;;5073692;28;20550;-88
2023/05/01 03:21:35;;;;;;;8.60;7.80;;;12.10;83.50;;;;;;5074931;28;20201;-89
2023/05/01 03:24:02;;;;;;;9.33;8.53;;;12.10;83.40;;;;;;5074777;28;20190;-87
2023/05/01 03:26:28;;;;;;;9.50;8.70;;;12.20;83.00;;;;;;5075382;28;20186;-88
2023/05/01 03:28:54;;;;;;;9.00;8.20;;;12.10;83.10;;;;;;5081492;28;20211;-88
2023/05/01 03:31:20;;;;;;;8.77;7.97;;;12.20;82.30;;;;;;5076857;28;20194;-88
2023/05/01 03:33:46;;;;;;;8.90;8.30;;;12.10;82.80;;;;;;5075817;28;20240;-87
2023/05/01 03:36:12;;;;;;;8.77;7.97;;;12.10;82.80;;;;;;5058448;28;20271;-87
2023/05/01 03:38:38;;;;;;;8.83;8.17;;;12.10;82.50;;;;;;5076117;28;20235;-89
2023/05/01 03:41:04;;;;;;;8.80;8.00;;;12.10;82.60;;;;;;5076396;28;20183;-89
2023/05/01 03:43:30;;;;;;;8.63;8.03;;;12.20;82.40;;;;;;5083239;28;20186;-88
2023/05/01 03:45:56;;;;;;;8.47;7.67;;;12.10;82.50;;;;;;5079509;28;20170;-87
2023/05/01 03:48:23;;;;;;;8.70;7.80;;;12.20;81.90;;;;;;5079227;28;20164;-89
2023/05/01 03:50:49;;;;;;;8.60;7.90;;;12.10;82.10;;;;;;5079921;28;20737;-89
2023/05/01 03:53:15;;;;;;;9.30;8.50;;;12.10;82.30;;;;;;5076829;28;20183;-88
2023/05/01 03:55:41;;;;;;;8.90;8.20;;;12.10;82.30;;;;;;5076358;28;20183;-88
2023/05/01 03:58:07;;;;;;;8.73;8.03;;;12.10;82.60;;;;;;5075054;28;20179;-88
2023/05/01 04:00:32;;;;;;;8.67;7.97;;;12.00;83.00;;;;;;5078073;28;20189;-86
2023/05/01 04:02:58;;;;;;;8.80;8.03;;;12.00;83.20;;;;;;5080139;28;20205;-88
2023/05/01 04:05:24;;;;;;;9.33;8.43;;;11.90;83.90;;;;;;5080112;28;20564;-90
2023/05/01 04:07:50;;;;;;;8.43;7.73;;;11.90;84.10;;;;;;5078033;28;20233;-88
2023/05/01 04:10:16;;;;;;;8.03;7.43;;;11.80;84.20;;;;;;5077661;28;20239;-86
2023/05/01 04:12:42;;;;;;;9.33;8.63;;;11.90;84.40;;;;;;5077822;28;20778;-88
2023/05/01 04:15:08;;;;;;;9.30;8.40;;;11.80;84.50;;;;;;5077257;28;20185;-89
2023/05/01 04:17:37;;;;;;;9.43;8.63;;;11.80;84.30;;;;;;5079065;28;20217;-88
2023/05/01 04:20:05;;;;;;;8.83;8.13;;;11.80;84.00;;;;;;5080017;28;20205;-88
2023/05/01 04:22:31;;;;;;;9.07;8.37;;;11.80;84.50;;;;;;5078043;28;20701;-88
2023/05/01 04:24:57;;;;;;;9.07;8.27;;;11.80;85.30;;;;;;5079369;28;20183;-88
2023/05/01 04:27:23;;;;;;;9.50;8.70;;;11.70;85.50;;;;;;5085909;28;20181;-90
2023/05/01 04:29:49;;;;;;;8.33;7.73;;;11.70;86.00;;;;;;5099538;28;20268;-88
2023/05/01 04:32:16;;;;;;;9.43;8.53;;;11.70;85.60;;;;;;5098729;28;20302;-89
2023/05/01 04:34:42;;;;;;;9.10;8.30;;;11.70;85.60;;;;;;5099284;28;20178;-90
2023/05/01 04:37:08;;;;;;;8.37;7.67;;;11.70;85.60;;;;;;5091714;28;20194;-88
2023/05/01 04:39:35;;;;;;;9.07;7.97;;;11.70;85.40;;;;;;5059928;28;20572;-88
2023/05/01 04:42:03;;;;;;;8.20;7.50;;;11.70;85.90;;;;;;5078311;28;20222;-90
2023/05/01 04:44:30;;;;;;;8.17;7.53;;;11.70;86.30;;;;;;5079032;28;20662;-89
2023/05/01 04:46:55;;;;;;;7.70;7.10;;;11.70;85.30;;;;;;5079353;28;20185;-88
2023/05/01 04:49:21;;;;;;;8.40;7.60;;;11.70;85.30;;;;;;5079455;28;20168;-88
2023/05/01 04:51:47;;;;;;;7.63;7.03;;;11.60;85.70;;;;;;5079074;28;20281;-90
2023/05/01 04:54:13;;;;;;;10.33;9.47;;;11.70;85.80;;;;;;5078817;28;20206;-90
2023/05/01 04:56:38;;;;;;;10.20;9.30;;;11.70;85.60;;;;;;5078442;28;20183;-87
2023/05/01 04:59:04;;;;;;;10.37;9.40;;;11.80;85.10;;;;;;5079058;28;20214;-90
2023/05/01 05:01:29;;;;;;;11.07;10.17;;;11.80;84.80;;;;;;5078641;28;20207;-89
2023/05/01 05:03:55;;;;;;;11.77;10.83;;;11.90;84.80;;;;;;5077275;28;20485;-89
2023/05/01 05:06:21;;;;;;;10.00;9.10;;;11.90;84.50;;;;;;5075001;28;20705;-88
2023/05/01 05:08:50;;;;;;;8.43;7.73;;;11.90;84.80;;;;;;5075780;28;20187;-89
2023/05/01 05:11:19;;;;;;;8.60;7.80;;;12.00;84.20;;;;;;5074994;28;20202;-89
2023/05/01 05:13:45;;;;;;;8.60;7.83;;;12.00;83.70;;;;;;5075481;28;20198;-89
2023/05/01 05:16:11;;;;;;;8.50;7.90;;;12.00;83.20;;;;;;5075543;28;20175;-89
2023/05/01 05:18:37;;;;;;;8.47;7.77;;;12.10;83.30;;;;;;5076859;28;20206;-87
2023/05/01 05:21:07;;;;;;;10.10;9.17;;;12.10;83.10;;;;;;5076904;28;20195;-89
2023/05/01 05:23:33;;;;;;;8.13;7.43;;;12.20;83.00;;;;;;5077534;28;20186;-89
2023/05/01 05:26:00;;;;;;;8.47;7.77;;;12.30;82.80;;;;;;5043132;28;20180;-89
2023/05/01 05:28:27;;;;;;;8.10;7.40;;;12.40;82.00;;;;;;5077867;28;20194;-89
2023/05/01 05:30:53;;;;;;;7.90;7.20;;;12.40;81.40;;;;;;5077545;28;20175;-89
2023/05/01 05:33:18;;;;;;;7.57;7.03;;;12.50;80.80;;;;;;5077489;28;20664;-90
2023/05/01 05:35:45;;;;;;;8.40;7.60;;;12.50;81.40;;;;;;5077381;28;20183;-87
2023/05/01 05:38:12;;;;;;;8.10;7.40;;;12.60;80.30;;;;;;5077190;28;20675;-88
2023/05/01 05:40:38;;;;;;;9.00;8.00;;;12.60;80.10;;;;;;5077392;28;20544;-88
2023/05/01 05:43:03;;;;;;;9.10;8.20;;;12.70;79.90;;;;;;5078078;28;20195;-89
2023/05/01 05:45:33;;;;;;;9.13;8.30;;;12.70;80.30;;;;;;5076930;28;20739;-89
2023/05/01 05:47:58;;;;;;;8.43;7.60;;;12.80;79.80;;;;;;5078951;28;20606;-88
2023/05/01 05:50:24;;;;;;;8.93;8.10;;;12.80;79.40;;;;;;5079451;28;20182;-89
2023/05/01 05:52:53;;;;;;;9.20;8.50;;;12.80;79.60;;;;;;5080057;28;20214;-89
2023/05/01 05:55:18;;;;;;;9.07;8.17;;;12.80;80.00;;;;;;5061542;28;20188;-88
2023/05/01 05:57:44;;;;;;;9.07;8.17;;;12.80;79.80;;;;;;5078479;28;20245;-89
2023/05/01 06:00:10;;;;;;;9.90;9.00;;;12.80;79.40;;;;;;5059769;28;20234;-91
2023/05/01 06:02:36;;;;;;;9.93;9.13;;;12.80;78.60;;;;;;5076857;28;20192;-89
2023/05/01 06:05:02;;;;;;;8.83;8.03;;;13.00;78.50;;;;;;5075286;28;20168;-89
2023/05/01 06:07:28;;;;;;;8.30;7.50;;;13.00;77.70;;;;;;5075890;28;20366;-87
2023/05/01 06:10:00;;;;;;;8.70;7.93;;;13.10;77.60;;;;;;5059361;28;20208;-88
2023/05/01 06:12:26;;;;;;;8.37;7.67;;;13.10;77.70;;;;;;5079767;28;20205;-89
2023/05/01 06:14:52;;;;;;;8.30;7.63;;;13.20;76.70;;;;;;5077040;28;20185;-89
2023/05/01 06:17:18;;;;;;;8.33;7.53;;;13.20;76.00;;;;;;5078325;28;20698;-89
2023/05/01 06:19:44;;;;;;;9.30;8.50;;;13.30;76.50;;;;;;5078537;28;20211;-89
2023/05/01 06:22:10;;;;;;;8.30;7.60;;;13.30;76.10;;;;;;5078825;28;20215;-89
2023/05/01 06:24:35;;;;;;;7.93;7.30;;;13.40;75.60;;;;;;5078731;28;20177;-89
2023/05/01 06:27:01;;;;;;;6.90;6.40;;;13.40;75.80;;;;;;5078421;28;20178;-90
2023/05/01 06:29:27;;;;;;;7.57;6.93;;;13.50;75.90;;;;;;5080146;28;20197;-89
2023/05/01 06:31:52;;;;;;;10.03;9.03;;;13.50;75.20;;;;;;5076932;28;20722;-88
2023/05/01 06:34:18;;;;;;;8.90;8.00;;;13.50;76.10;;;;;;5079776;28;20171;-89
2023/05/01 06:36:43;;;;;;;8.13;7.43;;;13.50;77.30;;;;;;5078283;28;20561;-89
2023/05/01 06:39:09;;;;;;;10.33;9.50;;;13.60;76.30;;;;;;5080222;28;20207;-92
2023/05/01 06:41:35;;;;;;;8.30;7.50;;;13.80;73.90;;;;;;5080004;28;20199;-93
2023/05/01 06:44:00;;;;;;;8.10;7.30;;;13.70;73.90;;;;;;5081648;28;20176;-92
2023/05/01 06:46:26;;;;;;;7.00;6.50;;;13.70;74.70;;;;;;5080481;28;20223;-95
2023/05/01 06:48:52;;;;;;;7.63;6.90;;;13.70;75.50;;;;;;5082551;28;20185;-94
2023/05/01 06:51:17;;;;;;;9.27;8.47;;;13.70;75.40;;;;;;5082782;28;20226;-94
2023/05/01 06:53:43;;;;;;;9.77;8.87;;;13.60;75.60;;;;;;5082069;28;20169;-95
2023/05/01 06:56:09;;;;;;;7.90;7.20;;;13.60;75.50;;;;;;5084905;28;20214;-95
2023/05/01 06:58:34;;;;;;;7.50;6.90;;;13.80;75.70;;;;;;5081988;28;20729;-94
2023/05/01 07:01:00;;;;;;;7.70;7.10;;;13.80;74.40;;;;;;5080192;28;20188;-94
2023/05/01 07:03:26;;;;;;;9.47;8.50;;;13.80;74.10;;;;;;5093555;28;20211;-96
2023/05/01 07:05:53;;;;;;;8.37;7.73;;;14.00;73.80;;;;;;5087527;28;20182;-94
2023/05/01 07:08:19;;;;;;;7.57;6.93;;;13.90;74.10;;;;;;5072748;28;20177;-93
2023/05/01 07:10:45;;;;;;;8.07;7.30;;;14.00;72.50;;;;;;5092923;28;20183;-96
2023/05/01 07:13:10;;;;;;;7.40;6.80;;;14.10;73.60;;;;;;5106399;28;20284;-93
2023/05/01 07:15:36;;;;;;;7.30;6.60;;;14.20;72.00;;;;;;5105867;28;20212;-95
2023/05/01 07:18:04;;;;;;;7.47;6.87;;;14.20;71.80;;;;;;5104649;28;20175;-93
2023/05/01 07:20:31;;;;;;;8.00;7.30;;;14.20;71.20;;;;;;5094025;28;20202;-93
2023/05/01 07:22:56;;;;;;;7.37;6.83;;;14.20;71.50;;;;;;5079667;28;20314;-94
2023/05/01 07:25:23;;;;;;;7.37;6.77;;;14.30;71.30;;;;;;5081584;28;20167;-91
2023/05/01 07:27:49;;;;;;;7.40;6.70;;;14.20;71.60;;;;;;5063253;28;20190;-91
2023/05/01 07:30:15;;;;;;;8.90;6.87;;;14.10;73.10;;;;;;5080731;28;20194;-93
2023/05/01 07:32:41;;;;;;;7.57;6.97;;;14.10;72.20;;;;;;5076104;28;20210;-93
2023/05/01 07:35:07;;;;;;;7.57;6.87;;;14.10;72.90;;;;;;5087684;28;20206;-91
2023/05/01 07:37:33;;;;;;;9.97;7.50;;;14.00;72.30;;;;;;5086573;28;20193;-94
2023/05/01 07:39:58;;;;;;;7.03;6.43;;;14.20;72.70;;;;;;5069380;28;20432;-94
2023/05/01 07:42:26;;;;;;;7.03;6.43;;;14.40;73.10;;;;;;5099524;28;20196;-92
2023/05/01 07:44:51;;;;;;;7.53;6.93;;;14.20;75.20;;;;;;5085680;28;20186;-92
2023/05/01 07:47:17;;;;;;;7.10;6.50;;;14.50;74.30;;;;;;5085850;28;20198;-95
2023/05/01 07:52:28;;;;;;;9.17;8.07;;;14.10;76.90;;;;;;5117763;22;20600;-94
2023/05/01 07:54:54;;;;;;;8.57;7.87;;;14.30;77.60;;;;;;5024124;28;20176;-93
2023/05/01 07:57:19;;;;;;;8.40;7.80;;;14.40;78.10;;;;;;5057142;28;20186;-93
2023/05/01 07:59:45;;;;;;;9.00;8.20;;;14.20;77.40;;;;;;5060543;28;20200;-94
2023/05/01 08:02:12;;;;;;;9.03;8.33;;;14.40;77.70;;;;;;5041635;28;20805;-93
2023/05/01 08:04:39;;;;;;;8.20;7.60;;;14.40;77.80;;;;;;5021517;28;20209;-93
2023/05/01 08:07:04;;;;;;;10.27;9.30;;;14.20;78.50;;;;;;5021851;28;20239;-92
2023/05/01 08:09:30;;;;;;;9.63;8.93;;;14.20;81.10;;;;;;5043669;28;20185;-93
2023/05/01 08:11:56;;;;;;;10.13;9.20;;;14.00;82.00;;;;;;5044193;28;20295;-95
2023/05/01 08:14:22;;;;;;;9.37;8.57;;;14.10;82.00;;;;;;5062732;28;20651;-92
2023/05/01 08:16:53;;;;;;;9.97;9.20;;;14.10;83.20;;;;;;5059806;28;20310;-92
2023/05/01 08:19:18;;;;;;;9.60;8.83;;;14.30;81.20;;;;;;5057511;28;20195;-92
2023/05/01 08:21:44;;;;;;;8.67;7.97;;;14.40;81.20;;;;;;5044556;28;20203;-92
2023/05/01 08:24:10;;;;;;;8.77;8.17;;;14.60;73.20;;;;;;5030136;28;20203;-92
2023/05/01 08:26:36;;;;;;;8.57;7.97;;;14.70;74.40;;;;;;5057663;28;20180;-92
2023/05/01 08:29:01;;;;;;;9.33;8.27;;;14.60;74.70;;;;;;5037598;28;20176;-93
2023/05/01 08:31:27;;;;;;;9.00;8.20;;;14.70;74.10;;;;;;5018314;28;20398;-92
2023/05/01 08:33:53;;;;;;;9.27;8.47;;;14.50;76.10;;;;;;5035866;28;20203;-93
2023/05/01 08:36:18;;;;;;;9.23;8.27;;;14.40;74.80;;;;;;5035532;28;20185;-92
2023/05/01 08:38:44;;;;;;;9.50;8.70;;;14.60;74.30;;;;;;5034290;28;20650;-91
2023/05/01 08:41:19;;;;;;;9.40;8.50;;;14.80;75.50;;;;;;5042812;28;20186;-92
2023/05/01 08:43:45;;;;;;;9.30;8.50;;;14.80;75.90;;;;;;5042086;28;20191;-93
2023/05/01 08:46:14;;;;;;;8.13;7.53;;;15.00;74.00;;;;;;5042565;28;20317;-93
2023/05/01 08:48:41;;;;;;;8.23;7.53;;;15.00;74.10;;;;;;5044783;28;20195;-94
2023/05/01 08:51:10;;;;;;;8.70;8.10;;;15.00;74.80;;;;;;5045898;28;20708;-94
2023/05/01 08:53:40;;;;;;;8.60;7.90;;;15.20;74.00;;;;;;5028361;28;20558;-94
2023/05/01 08:56:12;;;;;;;8.67;7.97;;;15.10;75.00;;;;;;5023089;28;20237;-93
2023/05/01 08:58:38;;;;;;;9.77;8.13;;;15.20;74.10;;;;;;5033293;28;20219;-93
2023/05/01 09:01:08;;;;;;;8.73;8.00;;;15.20;75.80;;;;;;5043680;28;20599;-92
2023/05/01 09:03:54;;;;;;;8.50;7.80;;;15.50;74.70;;;;;;5047171;28;20215;-93
2023/05/01 09:06:27;;;;;;;9.10;7.97;;;15.60;75.50;;;;;;5035066;28;20192;-94
2023/05/01 09:09:03;;;;;;;9.70;8.90;;;15.60;71.90;;;;;;5033278;28;20203;-91
2023/05/01 09:14:08;;;;;;;8.47;7.77;;;15.80;72.30;;;;;;5122587;22;20272;-94
2023/05/01 09:16:39;;;;;;;8.30;7.60;;;15.80;72.60;;;;;;5028920;28;20209;-93
2023/05/01 09:19:09;;;;;;;9.37;8.40;;;15.90;73.70;;;;;;5052463;28;20204;-93
2023/05/01 09:21:39;;;;;;;9.10;8.30;;;15.90;73.60;;;;;;5049076;28;20440;-93
2023/05/01 09:24:07;;;;;;;8.93;8.23;;;15.80;73.80;;;;;;5044962;28;20180;-94
2023/05/01 09:26:57;;;;;;;9.33;8.50;;;15.90;72.30;;;;;;5050876;28;20234;-91
2023/05/01 09:29:46;;;;;;;9.17;8.47;;;15.90;73.50;;;;;;5047567;28;20200;-94
2023/05/01 09:32:26;;;;;;;9.93;9.07;;;15.60;74.70;;;;;;5059766;28;20214;-94
2023/05/01 09:35:08;;;;;;;10.03;9.27;;;15.30;76.70;;;;;;5047136;28;20199;-94
2023/05/01 09:38:29;;;;;;;10.30;9.40;;;15.30;77.10;;;;;;5047392;28;20184;-92
2023/05/01 09:41:09;;;;;;;9.17;8.40;;;15.30;78.00;;;;;;5057037;28;20216;-93
2023/05/01 09:43:39;;;;;;;9.00;8.33;;;15.50;77.00;;;;;;5049254;28;20195;-94
2023/05/01 09:46:11;;;;;;;10.27;9.27;;;15.50;76.60;;;;;;5063136;28;20191;-95
2023/05/01 09:48:38;;;;;;;9.53;8.50;;;15.70;74.80;;;;;;5049854;28;20271;-94
2023/05/01 09:51:29;;;;;;;9.80;9.00;;;15.80;74.90;;;;;;5065185;28;20181;-92
2023/05/01 09:53:59;;;;;;;9.33;8.53;;;15.90;75.30;;;;;;5059504;28;20219;-94
2023/05/01 09:56:30;;;;;;;10.00;9.30;;;15.60;75.10;;;;;;5064061;28;20730;-94
2023/05/01 09:59:13;;;;;;;9.20;8.50;;;15.80;75.10;;;;;;5062940;28;20204;-95
2023/05/01 10:01:41;;;;;;;9.47;8.67;;;16.00;76.30;;;;;;5067577;28;20201;-95
2023/05/01 10:04:08;;;;;;;9.00;8.37;;;16.10;72.90;;;;;;5061818;28;20241;-93
2023/05/01 10:06:35;;;;;;;10.03;9.23;;;16.30;73.60;;;;;;5058283;28;20217;-92
2023/05/01 10:09:02;;;;;;;10.00;9.20;;;16.50;71.70;;;;;;5051723;28;20180;-93
2023/05/01 10:11:28;;;;;;;10.10;9.30;;;16.60;70.80;;;;;;5042414;28;20208;-91
2023/05/01 10:14:09;;;;;;;9.57;8.87;;;16.70;68.80;;;;;;5053459;28;20196;-93
2023/05/01 10:16:37;;;;;;;11.13;10.27;;;16.70;69.70;;;;;;5057538;28;20188;-92
2023/05/01 10:19:03;;;;;;;10.37;9.43;;;16.60;69.60;;;;;;5042105;28;20289;-93
2023/05/01 10:21:33;;;;;;;11.43;10.43;;;16.90;72.00;;;;;;5058056;28;20216;-95
2023/05/01 10:24:02;;;;;;;11.03;9.93;;;17.20;70.10;;;;;;5057282;28;20592;-93
2023/05/01 10:26:28;;;;;;;11.63;10.63;;;17.20;68.90;;;;;;5051709;28;20233;-93
2023/05/01 10:28:54;;;;;;;11.53;10.53;;;17.50;67.60;;;;;;5052207;28;20195;-94
2023/05/01 10:31:20;;;;;;;11.10;10.13;;;17.70;65.50;;;;;;5052448;28;20212;-92
2023/05/01 10:33:46;;;;;;;11.23;10.33;;;17.90;66.80;;;;;;5054921;28;20252;-90
2023/05/01 10:36:22;;;;;;;10.67;9.77;;;18.10;64.70;;;;;;5049335;28;20195;-87
2023/05/01 10:38:47;;;;;;;10.87;10.00;;;18.40;63.00;;;;;;5051305;28;20207;-90
2023/05/01 10:41:36;;;;;;;9.82;8.93;;;18.20;64.30;;;;;;5054366;28;20199;-89
2023/05/01 10:44:22;;;;;;;10.07;9.17;;;18.10;63.20;;;;;;5041815;28;20178;-90
2023/05/01 10:46:48;;;;;;;10.00;9.10;;;18.00;62.40;;;;;;5048230;28;20183;-90
2023/05/01 10:49:14;;;;;;;9.13;8.53;;;18.00;62.30;;;;;;5047039;28;20649;-89
2023/05/01 10:51:59;;;;;;;9.00;8.30;;;18.10;63.60;;;;;;5047413;28;20266;-90
2023/05/01 10:54:29;;;;;;;9.43;8.73;;;17.70;63.90;;;;;;5048276;28;20187;-90
2023/05/01 10:57:00;;;;;;;8.97;8.13;;;17.70;65.90;;;;;;5032864;28;20230;-88
2023/05/01 11:00:03;;;;;;;9.13;8.43;;;17.80;65.00;;;;;;5046593;28;20650;-89
2023/05/01 11:02:29;;;;;;;9.30;8.60;;;17.90;63.40;;;;;;5052344;28;20197;-86
2023/05/01 11:04:55;;;;;;;9.67;8.87;;;17.70;63.70;;;;;;5042540;28;20279;-88
2023/05/01 11:07:22;;;;;;;10.20;9.40;;;17.70;64.80;;;;;;5065658;28;20200;-91
2023/05/01 11:09:53;;;;;;;10.33;9.37;;;17.80;62.60;;;;;;5067519;28;20175;-90
2023/05/01 11:12:41;;;;;;;9.70;9.00;;;17.80;64.20;;;;;;5060175;28;20261;-91
2023/05/01 11:15:07;;;;;;;10.07;9.38;;;18.10;63.30;;;;;;5065788;28;20226;-91
2023/05/01 11:17:41;;;;;;;8.77;7.93;;;18.60;63.60;;;;;;5044856;28;20197;-90
2023/05/01 11:20:09;;;;;;;8.88;8.18;;;19.40;58.60;;;;;;5049273;28;20714;-89
2023/05/01 11:22:36;;;;;;;8.68;7.95;;;19.60;57.30;;;;;;5048439;28;20208;-88
2023/05/01 11:25:05;;;;;;;9.70;8.95;;;19.10;58.70;;;;;;5048003;28;20188;-86
2023/05/01 11:27:31;;;;;;;9.82;9.13;;;19.20;57.60;;;;;;5049749;28;20176;-89
2023/05/01 11:30:00;;;;;;;9.38;8.68;;;18.70;59.00;;;;;;5051040;28;20191;-88
2023/05/01 11:32:31;;;;;;;10.18;9.48;;;18.60;61.50;;;;;;5050534;28;20203;-88
2023/05/01 11:34:57;;;;;;;9.43;8.73;;;18.80;59.10;;;;;;5049871;28;20194;-90
2023/05/01 11:37:43;;;;;;;10.27;9.48;;;18.80;60.40;;;;;;5049639;28;20185;-88
2023/05/01 11:40:20;;;;;;;9.98;9.23;;;18.90;62.30;;;;;;5055465;28;20266;-91
2023/05/01 11:42:46;;;;;;;10.35;9.55;;;18.90;60.40;;;;;;5047243;28;20229;-87
2023/05/01 11:45:12;;;;;;;10.55;9.75;;;18.90;58.90;;;;;;5046834;28;20211;-88
2023/05/01 11:47:38;;;;;;;10.55;9.65;;;19.00;58.60;;;;;;5045279;28;20175;-88
2023/05/01 11:50:06;;;;;;;11.80;8.88;;;19.00;58.90;;;;;;5046556;28;20185;-86
2023/05/01 11:52:44;;;;;;;11.15;10.27;;;19.20;59.40;;;;;;5039886;28;20207;-88
2023/05/01 11:55:10;;;;;;;9.15;8.45;;;19.40;59.20;;;;;;5053173;28;20191;-87
2023/05/01 11:57:47;;;;;;;10.98;10.18;;;20.00;57.40;;;;;;5047876;28;20672;-89
2023/05/01 12:00:26;;;;;;;10.45;9.55;;;20.10;56.90;;;;;;5049683;28;20198;-90
2023/05/01 12:03:02;;;;;;;10.77;10.00;;;20.30;56.20;;;;;;5039846;28;20208;-89
2023/05/01 12:05:30;;;;;;;10.23;9.45;;;20.40;56.00;;;;;;5043722;28;20185;-85
2023/05/01 12:08:19;;;;;;;11.18;10.18;;;20.40;55.30;;;;;;5053801;28;20219;-92
2023/05/01 12:10:56;;;;;;;10.98;10.07;;;20.20;55.90;;;;;;5040748;28;20208;-92
2023/05/01 12:13:22;;;;;;;11.90;11.00;;;20.10;56.50;;;;;;5036269;28;20286;-91
2023/05/01 12:15:51;;;;;;;10.98;10.18;;;20.00;56.20;;;;;;5048250;28;20200;-92
2023/05/01 12:18:17;;;;;;;11.15;10.25;;;19.90;57.00;;;;;;5047618;28;20237;-92
2023/05/01 12:20:49;;;;;;;11.40;10.60;;;19.90;57.70;;;;;;5043512;28;20910;-91
2023/05/01 12:23:15;;;;;;;14.70;10.77;;;19.90;57.60;;;;;;5054249;28;20196;-93
2023/05/01 12:25:41;;;;;;;10.40;9.65;;;19.90;58.70;;;;;;5050684;28;20961;-91
2023/05/01 12:28:11;;;;;;;10.80;9.85;;;19.70;59.60;;;;;;5056034;28;20188;-89
2023/05/01 12:30:37;;;;;;;11.52;10.73;;;19.70;59.20;;;;;;5057257;28;20177;-92
2023/05/01 12:33:19;;;;;;;12.05;11.15;;;19.80;58.50;;;;;;5052181;28;20273;-93
2023/05/01 12:35:48;;;;;;;12.00;11.10;;;19.70;59.30;;;;;;5052453;28;20504;-92
2023/05/01 12:38:27;;;;;;;11.70;10.90;;;19.70;58.50;;;;;;5042863;28;20243;-92
2023/05/01 12:40:58;;;;;;;12.32;11.32;;;19.50;59.50;;;;;;5056514;28;20178;-92
2023/05/01 12:43:37;;;;;;;13.60;12.50;;;19.70;58.50;;;;;;5041043;28;20186;-92
2023/05/01 12:46:12;;;;;;;13.02;12.00;;;19.60;58.20;;;;;;5048639;28;20288;-93
2023/05/01 12:48:42;;;;;;;11.32;10.43;;;19.40;59.50;;;;;;5050582;28;20182;-94
2023/05/01 12:51:08;;;;;;;12.63;11.52;;;19.40;59.10;;;;;;5059136;28;20174;-94
2023/05/01 12:53:34;;;;;;;10.57;9.88;;;19.50;58.40;;;;;;5056430;28;20826;-93
2023/05/01 12:56:02;;;;;;;11.20;10.20;;;19.50;58.00;;;;;;5051856;28;20222;-93